sensor_id;sensor_type;location;lat;lon;timestamp;pressure;altitude;pressure_sealevel;temperature
41940;BMP180;23057;48.554;14.454;2022-10-31T00:02:18;94236.00;;;17.10
41940;BMP180;23057;48.554;14.454;2022-10-31T00:04:48;94239.00;;;17.10
41940;BMP180;23057;48.554;14.454;2022-10-31T00:07:19;94236.00;;;17.00
41940;BMP180;23057;48.554;14.454;2022-10-31T00:09:50;94236.00;;;17.00
41940;BMP180;23057;48.554;14.454;2022-10-31T00:12:21;94242.00;;;17.00
41940;BMP180;23057;48.554;14.454;2022-10-31T00:14:52;94239.00;;;16.90
41940;BMP180;23057;48.554;14.454;2022-10-31T00:17:23;94236.00;;;16.80
41940;BMP180;23057;48.554;14.454;2022-10-31T00:19:53;94237.00;;;16.80
41940;BMP180;23057;48.554;14.454;2022-10-31T00:22:25;94237.00;;;16.70
41940;BMP180;23057;48.554;14.454;2022-10-31T00:24:56;94239.00;;;16.70
41940;BMP180;23057;48.554;14.454;2022-10-31T00:27:26;94235.00;;;16.60
41940;BMP180;23057;48.554;14.454;2022-10-31T00:29:58;94237.00;;;16.60
41940;BMP180;23057;48.554;14.454;2022-10-31T00:32:29;94238.00;;;16.60
41940;BMP180;23057;48.554;14.454;2022-10-31T00:35:00;94238.00;;;16.60
41940;BMP180;23057;48.554;14.454;2022-10-31T00:37:31;94243.00;;;16.60
41940;BMP180;23057;48.554;14.454;2022-10-31T00:40:02;94232.00;;;16.70
41940;BMP180;23057;48.554;14.454;2022-10-31T00:42:33;94238.00;;;16.70
41940;BMP180;23057;48.554;14.454;2022-10-31T00:45:05;94233.00;;;16.70
41940;BMP180;23057;48.554;14.454;2022-10-31T00:47:36;94239.00;;;16.70
41940;BMP180;23057;48.554;14.454;2022-10-31T00:50:08;94235.00;;;16.70
41940;BMP180;23057;48.554;14.454;2022-10-31T00:52:39;94239.00;;;16.70
41940;BMP180;23057;48.554;14.454;2022-10-31T00:55:09;94233.00;;;16.70
41940;BMP180;23057;48.554;14.454;2022-10-31T00:57:40;94234.00;;;16.80
41940;BMP180;23057;48.554;14.454;2022-10-31T01:00:11;94244.00;;;16.80
41940;BMP180;23057;48.554;14.454;2022-10-31T01:02:43;94239.00;;;16.80
41940;BMP180;23057;48.554;14.454;2022-10-31T01:05:14;94234.00;;;16.80
41940;BMP180;23057;48.554;14.454;2022-10-31T01:07:45;94241.00;;;16.80
41940;BMP180;23057;48.554;14.454;2022-10-31T01:10:17;94252.00;;;16.80
41940;BMP180;23057;48.554;14.454;2022-10-31T01:12:49;94244.00;;;16.80
41940;BMP180;23057;48.554;14.454;2022-10-31T01:15:22;94248.00;;;16.70
41940;BMP180;23057;48.554;14.454;2022-10-31T01:17:53;94257.00;;;16.70
41940;BMP180;23057;48.554;14.454;2022-10-31T01:20:24;94254.00;;;16.80
41940;BMP180;23057;48.554;14.454;2022-10-31T01:22:54;94247.00;;;16.80
41940;BMP180;23057;48.554;14.454;2022-10-31T01:25:25;94250.00;;;16.80
41940;BMP180;23057;48.554;14.454;2022-10-31T01:27:56;94257.00;;;16.80
41940;BMP180;23057;48.554;14.454;2022-10-31T01:30:27;94246.00;;;16.80
41940;BMP180;23057;48.554;14.454;2022-10-31T01:32:58;94244.00;;;16.90
41940;BMP180;23057;48.554;14.454;2022-10-31T01:35:29;94249.00;;;16.90
41940;BMP180;23057;48.554;14.454;2022-10-31T01:37:59;94248.00;;;16.90
41940;BMP180;23057;48.554;14.454;2022-10-31T01:40:30;94243.00;;;16.80
41940;BMP180;23057;48.554;14.454;2022-10-31T01:43:01;94242.00;;;16.80
41940;BMP180;23057;48.554;14.454;2022-10-31T01:45:32;94240.00;;;16.90
41940;BMP180;23057;48.554;14.454;2022-10-31T01:48:03;94240.00;;;16.90
41940;BMP180;23057;48.554;14.454;2022-10-31T01:50:38;94242.00;;;16.80
41940;BMP180;23057;48.554;14.454;2022-10-31T01:53:11;94240.00;;;16.90
41940;BMP180;23057;48.554;14.454;2022-10-31T01:55:46;94236.00;;;16.90
41940;BMP180;23057;48.554;14.454;2022-10-31T01:58:23;94235.00;;;16.90
41940;BMP180;23057;48.554;14.454;2022-10-31T02:01:00;94243.00;;;16.90
41940;BMP180;23057;48.554;14.454;2022-10-31T02:03:32;94236.00;;;16.90
41940;BMP180;23057;48.554;14.454;2022-10-31T02:06:12;94237.00;;;16.90
41940;BMP180;23057;48.554;14.454;2022-10-31T02:08:52;94230.00;;;16.90
41940;BMP180;23057;48.554;14.454;2022-10-31T02:11:27;94238.00;;;16.90
41940;BMP180;23057;48.554;14.454;2022-10-31T02:14:01;94235.00;;;16.90
41940;BMP180;23057;48.554;14.454;2022-10-31T02:16:33;94238.00;;;16.90
41940;BMP180;23057;48.554;14.454;2022-10-31T02:19:10;94233.00;;;17.00
41940;BMP180;23057;48.554;14.454;2022-10-31T02:22:06;94229.00;;;17.00
41940;BMP180;23057;48.554;14.454;2022-10-31T02:24:53;94233.00;;;17.00
41940;BMP180;23057;48.554;14.454;2022-10-31T02:33:54;94233.00;;;17.00
41940;BMP180;23057;48.554;14.454;2022-10-31T02:36:53;94237.00;;;17.00
41940;BMP180;23057;48.554;14.454;2022-10-31T02:45:31;94228.00;;;16.80
41940;BMP180;23057;48.554;14.454;2022-10-31T02:48:15;94232.00;;;16.70
41940;BMP180;23057;48.554;14.454;2022-10-31T02:50:58;94234.00;;;16.60
41940;BMP180;23057;48.554;14.454;2022-10-31T02:53:36;94235.00;;;16.60
41940;BMP180;23057;48.554;14.454;2022-10-31T02:56:19;94240.00;;;16.50
41940;BMP180;23057;48.554;14.454;2022-10-31T02:59:03;94238.00;;;16.50
41940;BMP180;23057;48.554;14.454;2022-10-31T03:05:22;94238.00;;;16.30
41940;BMP180;23057;48.554;14.454;2022-10-31T03:11:09;94245.00;;;16.20
41940;BMP180;23057;48.554;14.454;2022-10-31T03:13:47;94239.00;;;16.10
41940;BMP180;23057;48.554;14.454;2022-10-31T03:16:45;94243.00;;;16.10
41940;BMP180;23057;48.554;14.454;2022-10-31T03:19:28;94242.00;;;16.10
41940;BMP180;23057;48.554;14.454;2022-10-31T03:22:18;94237.00;;;16.20
41940;BMP180;23057;48.554;14.454;2022-10-31T03:24:53;94230.00;;;16.20
41940;BMP180;23057;48.554;14.454;2022-10-31T03:27:31;94242.00;;;16.20
41940;BMP180;23057;48.554;14.454;2022-10-31T03:30:06;94231.00;;;16.20
41940;BMP180;23057;48.554;14.454;2022-10-31T03:32:44;94228.00;;;16.20
41940;BMP180;23057;48.554;14.454;2022-10-31T03:35:25;94228.00;;;16.10
41940;BMP180;23057;48.554;14.454;2022-10-31T03:38:00;94228.00;;;16.10
41940;BMP180;23057;48.554;14.454;2022-10-31T03:40:36;94236.00;;;16.10
41940;BMP180;23057;48.554;14.454;2022-10-31T03:43:17;94237.00;;;16.10
41940;BMP180;23057;48.554;14.454;2022-10-31T03:45:53;94238.00;;;16.10
41940;BMP180;23057;48.554;14.454;2022-10-31T03:48:25;94232.00;;;16.10
41940;BMP180;23057;48.554;14.454;2022-10-31T03:54:42;94240.00;;;16.00
41940;BMP180;23057;48.554;14.454;2022-10-31T03:57:37;94237.00;;;16.00
41940;BMP180;23057;48.554;14.454;2022-10-31T04:00:25;94237.00;;;15.90
41940;BMP180;23057;48.554;14.454;2022-10-31T04:03:03;94242.00;;;15.90
41940;BMP180;23057;48.554;14.454;2022-10-31T04:05:48;94244.00;;;15.80
41940;BMP180;23057;48.554;14.454;2022-10-31T04:08:30;94239.00;;;15.80
41940;BMP180;23057;48.554;14.454;2022-10-31T04:11:08;94245.00;;;15.70
41940;BMP180;23057;48.554;14.454;2022-10-31T04:13:44;94240.00;;;15.70
41940;BMP180;23057;48.554;14.454;2022-10-31T04:16:17;94242.00;;;15.70
41940;BMP180;23057;48.554;14.454;2022-10-31T04:18:50;94252.00;;;15.60
41940;BMP180;23057;48.554;14.454;2022-10-31T04:21:30;94248.00;;;15.50
41940;BMP180;23057;48.554;14.454;2022-10-31T04:24:01;94245.00;;;15.40
41940;BMP180;23057;48.554;14.454;2022-10-31T04:26:31;94246.00;;;15.30
41940;BMP180;23057;48.554;14.454;2022-10-31T04:29:02;94245.00;;;15.20
41940;BMP180;23057;48.554;14.454;2022-10-31T04:31:33;94237.00;;;15.30
41940;BMP180;23057;48.554;14.454;2022-10-31T04:34:04;94242.00;;;15.40
41940;BMP180;23057;48.554;14.454;2022-10-31T04:36:35;94242.00;;;15.40
41940;BMP180;23057;48.554;14.454;2022-10-31T04:39:06;94240.00;;;15.50
41940;BMP180;23057;48.554;14.454;2022-10-31T04:41:37;94237.00;;;15.50
41940;BMP180;23057;48.554;14.454;2022-10-31T04:44:07;94241.00;;;15.50
41940;BMP180;23057;48.554;14.454;2022-10-31T04:46:38;94248.00;;;15.60
41940;BMP180;23057;48.554;14.454;2022-10-31T04:49:09;94246.00;;;15.60
41940;BMP180;23057;48.554;14.454;2022-10-31T04:51:40;94241.00;;;15.60
41940;BMP180;23057;48.554;14.454;2022-10-31T04:54:11;94248.00;;;15.60
41940;BMP180;23057;48.554;14.454;2022-10-31T04:56:42;94243.00;;;15.60
41940;BMP180;23057;48.554;14.454;2022-10-31T04:59:13;94244.00;;;15.60
41940;BMP180;23057;48.554;14.454;2022-10-31T05:01:43;94245.00;;;15.60
41940;BMP180;23057;48.554;14.454;2022-10-31T05:04:14;94247.00;;;15.60
41940;BMP180;23057;48.554;14.454;2022-10-31T05:06:45;94243.00;;;15.60
41940;BMP180;23057;48.554;14.454;2022-10-31T05:09:16;94244.00;;;15.60
41940;BMP180;23057;48.554;14.454;2022-10-31T05:11:47;94237.00;;;15.60
41940;BMP180;23057;48.554;14.454;2022-10-31T05:14:18;94245.00;;;15.60
41940;BMP180;23057;48.554;14.454;2022-10-31T05:16:48;94250.00;;;15.60
41940;BMP180;23057;48.554;14.454;2022-10-31T05:19:19;94247.00;;;15.60
41940;BMP180;23057;48.554;14.454;2022-10-31T05:21:50;94246.00;;;15.60
41940;BMP180;23057;48.554;14.454;2022-10-31T05:24:21;94247.00;;;15.70
41940;BMP180;23057;48.554;14.454;2022-10-31T05:26:52;94238.00;;;15.70
41940;BMP180;23057;48.554;14.454;2022-10-31T05:29:23;94243.00;;;15.70
41940;BMP180;23057;48.554;14.454;2022-10-31T05:31:53;94250.00;;;15.70
41940;BMP180;23057;48.554;14.454;2022-10-31T05:34:24;94245.00;;;15.70
41940;BMP180;23057;48.554;14.454;2022-10-31T05:36:55;94249.00;;;15.70
41940;BMP180;23057;48.554;14.454;2022-10-31T05:39:26;94240.00;;;15.70
41940;BMP180;23057;48.554;14.454;2022-10-31T05:41:57;94247.00;;;15.70
41940;BMP180;23057;48.554;14.454;2022-10-31T05:44:27;94251.00;;;15.80
41940;BMP180;23057;48.554;14.454;2022-10-31T05:46:58;94252.00;;;15.90
41940;BMP180;23057;48.554;14.454;2022-10-31T05:49:29;94248.00;;;15.90
41940;BMP180;23057;48.554;14.454;2022-10-31T05:52:00;94257.00;;;15.90
41940;BMP180;23057;48.554;14.454;2022-10-31T05:54:31;94256.00;;;15.90
41940;BMP180;23057;48.554;14.454;2022-10-31T05:57:02;94249.00;;;15.90
41940;BMP180;23057;48.554;14.454;2022-10-31T05:59:33;94253.00;;;15.90
41940;BMP180;23057;48.554;14.454;2022-10-31T06:02:04;94255.00;;;15.80
41940;BMP180;23057;48.554;14.454;2022-10-31T06:04:34;94248.00;;;15.70
41940;BMP180;23057;48.554;14.454;2022-10-31T06:07:05;94254.00;;;15.60
41940;BMP180;23057;48.554;14.454;2022-10-31T06:09:36;94256.00;;;15.50
41940;BMP180;23057;48.554;14.454;2022-10-31T06:12:07;94250.00;;;15.40
41940;BMP180;23057;48.554;14.454;2022-10-31T06:14:38;94252.00;;;15.40
41940;BMP180;23057;48.554;14.454;2022-10-31T06:17:09;94257.00;;;15.30
41940;BMP180;23057;48.554;14.454;2022-10-31T06:19:40;94257.00;;;15.30
41940;BMP180;23057;48.554;14.454;2022-10-31T06:22:10;94260.00;;;15.20
41940;BMP180;23057;48.554;14.454;2022-10-31T06:24:41;94267.00;;;15.20
41940;BMP180;23057;48.554;14.454;2022-10-31T06:27:12;94268.00;;;15.20
41940;BMP180;23057;48.554;14.454;2022-10-31T06:29:43;94283.00;;;15.10
41940;BMP180;23057;48.554;14.454;2022-10-31T06:32:16;94284.00;;;15.10
41940;BMP180;23057;48.554;14.454;2022-10-31T06:34:48;94281.00;;;15.10
41940;BMP180;23057;48.554;14.454;2022-10-31T06:37:18;94282.00;;;15.30
41940;BMP180;23057;48.554;14.454;2022-10-31T06:39:49;94284.00;;;15.40
41940;BMP180;23057;48.554;14.454;2022-10-31T06:42:20;94288.00;;;15.60
41940;BMP180;23057;48.554;14.454;2022-10-31T06:44:51;94297.00;;;15.70
41940;BMP180;23057;48.554;14.454;2022-10-31T06:47:22;94295.00;;;15.90
41940;BMP180;23057;48.554;14.454;2022-10-31T06:49:53;94295.00;;;16.10
41940;BMP180;23057;48.554;14.454;2022-10-31T06:52:24;94295.00;;;16.20
41940;BMP180;23057;48.554;14.454;2022-10-31T06:54:54;94292.00;;;16.40
41940;BMP180;23057;48.554;14.454;2022-10-31T06:57:25;94300.00;;;16.60
41940;BMP180;23057;48.554;14.454;2022-10-31T06:59:56;94305.00;;;16.80
41940;BMP180;23057;48.554;14.454;2022-10-31T07:02:27;94306.00;;;17.00
41940;BMP180;23057;48.554;14.454;2022-10-31T07:04:58;94309.00;;;17.20
41940;BMP180;23057;48.554;14.454;2022-10-31T07:07:28;94312.00;;;17.30
41940;BMP180;23057;48.554;14.454;2022-10-31T07:09:59;94314.00;;;17.50
41940;BMP180;23057;48.554;14.454;2022-10-31T07:12:30;94315.00;;;17.70
41940;BMP180;23057;48.554;14.454;2022-10-31T07:15:01;94313.00;;;17.90
41940;BMP180;23057;48.554;14.454;2022-10-31T07:17:32;94313.00;;;18.00
41940;BMP180;23057;48.554;14.454;2022-10-31T07:20:03;94319.00;;;18.10
41940;BMP180;23057;48.554;14.454;2022-10-31T07:22:36;94321.00;;;18.10
41940;BMP180;23057;48.554;14.454;2022-10-31T07:25:09;94310.00;;;18.20
41940;BMP180;23057;48.554;14.454;2022-10-31T07:27:42;94316.00;;;18.20
41940;BMP180;23057;48.554;14.454;2022-10-31T07:30:14;94320.00;;;18.40
41940;BMP180;23057;48.554;14.454;2022-10-31T07:32:48;94320.00;;;18.50
41940;BMP180;23057;48.554;14.454;2022-10-31T07:35:26;94316.00;;;18.60
41940;BMP180;23057;48.554;14.454;2022-10-31T07:38:11;94308.00;;;18.60
41940;BMP180;23057;48.554;14.454;2022-10-31T07:40:44;94318.00;;;18.70
41940;BMP180;23057;48.554;14.454;2022-10-31T07:43:21;94316.00;;;18.90
41940;BMP180;23057;48.554;14.454;2022-10-31T07:45:54;94308.00;;;19.00
41940;BMP180;23057;48.554;14.454;2022-10-31T07:48:26;94310.00;;;19.20
41940;BMP180;23057;48.554;14.454;2022-10-31T07:50:57;94313.00;;;19.40
41940;BMP180;23057;48.554;14.454;2022-10-31T07:53:28;94306.00;;;19.60
41940;BMP180;23057;48.554;14.454;2022-10-31T07:55:59;94298.00;;;19.70
41940;BMP180;23057;48.554;14.454;2022-10-31T07:58:30;94302.00;;;19.80
41940;BMP180;23057;48.554;14.454;2022-10-31T08:01:01;94295.00;;;20.00
41940;BMP180;23057;48.554;14.454;2022-10-31T08:03:31;94310.00;;;20.10
41940;BMP180;23057;48.554;14.454;2022-10-31T08:06:02;94298.00;;;20.20
41940;BMP180;23057;48.554;14.454;2022-10-31T08:08:33;94296.00;;;20.20
41940;BMP180;23057;48.554;14.454;2022-10-31T08:11:04;94311.00;;;20.30
41940;BMP180;23057;48.554;14.454;2022-10-31T08:13:35;94302.00;;;20.40
41940;BMP180;23057;48.554;14.454;2022-10-31T08:16:06;94291.00;;;20.50
41940;BMP180;23057;48.554;14.454;2022-10-31T08:18:37;94292.00;;;20.60
41940;BMP180;23057;48.554;14.454;2022-10-31T08:21:08;94298.00;;;20.60
41940;BMP180;23057;48.554;14.454;2022-10-31T08:23:39;94299.00;;;20.60
41940;BMP180;23057;48.554;14.454;2022-10-31T08:26:10;94292.00;;;20.70
41940;BMP180;23057;48.554;14.454;2022-10-31T08:28:41;94294.00;;;20.70
41940;BMP180;23057;48.554;14.454;2022-10-31T08:31:12;94285.00;;;20.80
41940;BMP180;23057;48.554;14.454;2022-10-31T08:33:43;94294.00;;;20.90
41940;BMP180;23057;48.554;14.454;2022-10-31T08:36:14;94303.00;;;21.00
41940;BMP180;23057;48.554;14.454;2022-10-31T08:38:47;94289.00;;;21.00
41940;BMP180;23057;48.554;14.454;2022-10-31T08:41:18;94296.00;;;21.10
41940;BMP180;23057;48.554;14.454;2022-10-31T08:43:49;94294.00;;;21.30
41940;BMP180;23057;48.554;14.454;2022-10-31T08:46:20;94289.00;;;21.40
41940;BMP180;23057;48.554;14.454;2022-10-31T08:48:51;94291.00;;;21.60
41940;BMP180;23057;48.554;14.454;2022-10-31T08:51:23;94294.00;;;21.70
41940;BMP180;23057;48.554;14.454;2022-10-31T08:53:54;94285.00;;;21.90
41940;BMP180;23057;48.554;14.454;2022-10-31T08:56:24;94286.00;;;22.10
41940;BMP180;23057;48.554;14.454;2022-10-31T08:58:55;94282.00;;;22.20
41940;BMP180;23057;48.554;14.454;2022-10-31T09:01:26;94282.00;;;22.30
41940;BMP180;23057;48.554;14.454;2022-10-31T09:03:57;94287.00;;;22.40
41940;BMP180;23057;48.554;14.454;2022-10-31T09:06:28;94280.00;;;22.50
41940;BMP180;23057;48.554;14.454;2022-10-31T09:08:59;94280.00;;;22.60
41940;BMP180;23057;48.554;14.454;2022-10-31T09:11:31;94280.00;;;22.80
41940;BMP180;23057;48.554;14.454;2022-10-31T09:14:03;94287.00;;;22.90
41940;BMP180;23057;48.554;14.454;2022-10-31T09:16:34;94284.00;;;23.00
41940;BMP180;23057;48.554;14.454;2022-10-31T09:19:04;94278.00;;;23.20
41940;BMP180;23057;48.554;14.454;2022-10-31T09:21:36;94279.00;;;23.40
41940;BMP180;23057;48.554;14.454;2022-10-31T09:24:07;94277.00;;;23.60
41940;BMP180;23057;48.554;14.454;2022-10-31T09:26:38;94275.00;;;23.80
41940;BMP180;23057;48.554;14.454;2022-10-31T09:29:09;94276.00;;;24.00
41940;BMP180;23057;48.554;14.454;2022-10-31T09:31:42;94274.00;;;24.10
41940;BMP180;23057;48.554;14.454;2022-10-31T09:34:13;94262.00;;;24.30
41940;BMP180;23057;48.554;14.454;2022-10-31T09:36:44;94271.00;;;24.40
41940;BMP180;23057;48.554;14.454;2022-10-31T09:39:16;94271.00;;;24.50
41940;BMP180;23057;48.554;14.454;2022-10-31T09:42:51;94267.00;;;24.60
41940;BMP180;23057;48.554;14.454;2022-10-31T09:45:41;94273.00;;;24.60
41940;BMP180;23057;48.554;14.454;2022-10-31T09:51:28;94272.00;;;24.80
41940;BMP180;23057;48.554;14.454;2022-10-31T09:54:14;94267.00;;;24.90
41940;BMP180;23057;48.554;14.454;2022-10-31T09:56:48;94269.00;;;25.00
41940;BMP180;23057;48.554;14.454;2022-10-31T09:59:37;94273.00;;;25.10
41940;BMP180;23057;48.554;14.454;2022-10-31T10:08:29;94267.00;;;25.40
41940;BMP180;23057;48.554;14.454;2022-10-31T10:17:38;94261.00;;;25.80
41940;BMP180;23057;48.554;14.454;2022-10-31T10:21:06;94264.00;;;25.90
41940;BMP180;23057;48.554;14.454;2022-10-31T10:24:08;94262.00;;;26.10
41940;BMP180;23057;48.554;14.454;2022-10-31T10:30:13;94257.00;;;26.20
41940;BMP180;23057;48.554;14.454;2022-10-31T10:32:54;94254.00;;;26.20
41940;BMP180;23057;48.554;14.454;2022-10-31T10:35:45;94254.00;;;26.20
41940;BMP180;23057;48.554;14.454;2022-10-31T10:41:13;94250.00;;;26.30
41940;BMP180;23057;48.554;14.454;2022-10-31T10:43:51;94247.00;;;26.40
41940;BMP180;23057;48.554;14.454;2022-10-31T10:46:45;94247.00;;;26.50
41940;BMP180;23057;48.554;14.454;2022-10-31T10:49:49;94240.00;;;26.50
41940;BMP180;23057;48.554;14.454;2022-10-31T10:58:12;94227.00;;;26.70
41940;BMP180;23057;48.554;14.454;2022-10-31T11:00:46;94236.00;;;26.80
41940;BMP180;23057;48.554;14.454;2022-10-31T11:03:18;94236.00;;;27.00
41940;BMP180;23057;48.554;14.454;2022-10-31T11:05:57;94226.00;;;27.10
41940;BMP180;23057;48.554;14.454;2022-10-31T11:08:36;94227.00;;;27.30
41940;BMP180;23057;48.554;14.454;2022-10-31T11:13:52;94227.00;;;27.60
41940;BMP180;23057;48.554;14.454;2022-10-31T11:16:33;94221.00;;;27.70
41940;BMP180;23057;48.554;14.454;2022-10-31T11:19:21;94223.00;;;27.90
41940;BMP180;23057;48.554;14.454;2022-10-31T11:22:07;94215.00;;;27.90
41940;BMP180;23057;48.554;14.454;2022-10-31T11:24:44;94211.00;;;28.00
41940;BMP180;23057;48.554;14.454;2022-10-31T11:27:24;94203.00;;;28.10
41940;BMP180;23057;48.554;14.454;2022-10-31T11:30:06;94204.00;;;28.20
41940;BMP180;23057;48.554;14.454;2022-10-31T11:32:49;94208.00;;;28.20
41940;BMP180;23057;48.554;14.454;2022-10-31T11:35:24;94208.00;;;28.30
41940;BMP180;23057;48.554;14.454;2022-10-31T11:38:05;94203.00;;;28.30
41940;BMP180;23057;48.554;14.454;2022-10-31T11:40:36;94203.00;;;28.30
41940;BMP180;23057;48.554;14.454;2022-10-31T11:43:17;94203.00;;;28.40
41940;BMP180;23057;48.554;14.454;2022-10-31T11:45:49;94200.00;;;28.40
41940;BMP180;23057;48.554;14.454;2022-10-31T11:48:24;94193.00;;;28.50
41940;BMP180;23057;48.554;14.454;2022-10-31T11:50:58;94188.00;;;28.60
41940;BMP180;23057;48.554;14.454;2022-10-31T11:53:33;94184.00;;;28.60
41940;BMP180;23057;48.554;14.454;2022-10-31T11:56:14;94179.00;;;28.50
41940;BMP180;23057;48.554;14.454;2022-10-31T11:59:04;94176.00;;;28.50
41940;BMP180;23057;48.554;14.454;2022-10-31T12:01:51;94187.00;;;28.40
41940;BMP180;23057;48.554;14.454;2022-10-31T12:07:12;94177.00;;;28.40
41940;BMP180;23057;48.554;14.454;2022-10-31T12:09:43;94177.00;;;28.40
41940;BMP180;23057;48.554;14.454;2022-10-31T12:12:41;94167.00;;;28.50
41940;BMP180;23057;48.554;14.454;2022-10-31T12:15:35;94161.00;;;28.50
41940;BMP180;23057;48.554;14.454;2022-10-31T12:18:47;94161.00;;;28.50
41940;BMP180;23057;48.554;14.454;2022-10-31T12:34:53;94152.00;;;28.50
41940;BMP180;23057;48.554;14.454;2022-10-31T12:40:53;94140.00;;;28.40
41940;BMP180;23057;48.554;14.454;2022-10-31T12:44:05;94134.00;;;28.30
41940;BMP180;23057;48.554;14.454;2022-10-31T12:47:32;94137.00;;;28.20
41940;BMP180;23057;48.554;14.454;2022-10-31T12:50:50;94134.00;;;28.10
41940;BMP180;23057;48.554;14.454;2022-10-31T12:57:27;94126.00;;;28.10
41940;BMP180;23057;48.554;14.454;2022-10-31T13:00:15;94125.00;;;28.10
41940;BMP180;23057;48.554;14.454;2022-10-31T13:03:02;94116.00;;;28.10
41940;BMP180;23057;48.554;14.454;2022-10-31T13:05:59;94120.00;;;28.10
41940;BMP180;23057;48.554;14.454;2022-10-31T13:08:45;94111.00;;;28.10
41940;BMP180;23057;48.554;14.454;2022-10-31T13:11:35;94109.00;;;28.10
41940;BMP180;23057;48.554;14.454;2022-10-31T13:14:46;94107.00;;;28.10
41940;BMP180;23057;48.554;14.454;2022-10-31T13:17:39;94099.00;;;28.00
41940;BMP180;23057;48.554;14.454;2022-10-31T13:20:32;94089.00;;;28.00
41940;BMP180;23057;48.554;14.454;2022-10-31T13:23:33;94097.00;;;28.00
41940;BMP180;23057;48.554;14.454;2022-10-31T13:26:12;94097.00;;;28.00
41940;BMP180;23057;48.554;14.454;2022-10-31T13:32:07;94100.00;;;27.90
41940;BMP180;23057;48.554;14.454;2022-10-31T13:34:50;94094.00;;;28.00
41940;BMP180;23057;48.554;14.454;2022-10-31T13:37:46;94088.00;;;28.00
41940;BMP180;23057;48.554;14.454;2022-10-31T13:44:06;94091.00;;;28.00
41940;BMP180;23057;48.554;14.454;2022-10-31T13:46:42;94093.00;;;27.90
41940;BMP180;23057;48.554;14.454;2022-10-31T13:54:47;94085.00;;;27.80
41940;BMP180;23057;48.554;14.454;2022-10-31T13:57:38;94079.00;;;27.70
41940;BMP180;23057;48.554;14.454;2022-10-31T14:02:55;94083.00;;;27.70
41940;BMP180;23057;48.554;14.454;2022-10-31T14:05:31;94076.00;;;27.70
41940;BMP180;23057;48.554;14.454;2022-10-31T14:08:17;94078.00;;;27.60
41940;BMP180;23057;48.554;14.454;2022-10-31T14:10:53;94079.00;;;27.50
41940;BMP180;23057;48.554;14.454;2022-10-31T14:13:46;94074.00;;;27.40
41940;BMP180;23057;48.554;14.454;2022-10-31T14:16:27;94073.00;;;27.30
41940;BMP180;23057;48.554;14.454;2022-10-31T14:19:16;94068.00;;;27.30
41940;BMP180;23057;48.554;14.454;2022-10-31T14:21:50;94066.00;;;27.20
41940;BMP180;23057;48.554;14.454;2022-10-31T14:27:00;94070.00;;;27.10
41940;BMP180;23057;48.554;14.454;2022-10-31T14:29:54;94065.00;;;27.00
41940;BMP180;23057;48.554;14.454;2022-10-31T14:32:27;94063.00;;;27.00
41940;BMP180;23057;48.554;14.454;2022-10-31T14:34:59;94063.00;;;26.90
41940;BMP180;23057;48.554;14.454;2022-10-31T14:40:35;94065.00;;;26.80
41940;BMP180;23057;48.554;14.454;2022-10-31T14:47:04;94056.00;;;26.70
41940;BMP180;23057;48.554;14.454;2022-10-31T14:53:47;94061.00;;;26.60
41940;BMP180;23057;48.554;14.454;2022-10-31T14:56:28;94063.00;;;26.60
41940;BMP180;23057;48.554;14.454;2022-10-31T14:59:14;94056.00;;;26.60
41940;BMP180;23057;48.554;14.454;2022-10-31T15:02:16;94052.00;;;26.70
41940;BMP180;23057;48.554;14.454;2022-10-31T15:04:55;94053.00;;;26.70
41940;BMP180;23057;48.554;14.454;2022-10-31T15:07:27;94046.00;;;26.70
41940;BMP180;23057;48.554;14.454;2022-10-31T15:10:02;94052.00;;;26.70
41940;BMP180;23057;48.554;14.454;2022-10-31T15:12:49;94049.00;;;26.60
41940;BMP180;23057;48.554;14.454;2022-10-31T15:15:23;94050.00;;;26.60
41940;BMP180;23057;48.554;14.454;2022-10-31T15:18:00;94057.00;;;26.60
41940;BMP180;23057;48.554;14.454;2022-10-31T15:20:43;94052.00;;;26.50
41940;BMP180;23057;48.554;14.454;2022-10-31T15:23:28;94052.00;;;26.40
41940;BMP180;23057;48.554;14.454;2022-10-31T15:26:03;94043.00;;;26.30
41940;BMP180;23057;48.554;14.454;2022-10-31T15:28:35;94038.00;;;26.30
41940;BMP180;23057;48.554;14.454;2022-10-31T15:31:16;94041.00;;;26.20
41940;BMP180;23057;48.554;14.454;2022-10-31T15:33:49;94037.00;;;26.10
41940;BMP180;23057;48.554;14.454;2022-10-31T15:36:24;94034.00;;;26.00
41940;BMP180;23057;48.554;14.454;2022-10-31T15:38:56;94035.00;;;25.90
41940;BMP180;23057;48.554;14.454;2022-10-31T15:41:51;94035.00;;;25.90
41940;BMP180;23057;48.554;14.454;2022-10-31T15:44:30;94034.00;;;25.80
41940;BMP180;23057;48.554;14.454;2022-10-31T15:47:12;94023.00;;;25.70
41940;BMP180;23057;48.554;14.454;2022-10-31T15:49:56;94027.00;;;25.70
41940;BMP180;23057;48.554;14.454;2022-10-31T15:52:42;94030.00;;;25.60
41940;BMP180;23057;48.554;14.454;2022-10-31T15:55:25;94020.00;;;25.50
41940;BMP180;23057;48.554;14.454;2022-10-31T15:58:04;94025.00;;;25.30
41940;BMP180;23057;48.554;14.454;2022-10-31T16:00:42;94031.00;;;25.30
41940;BMP180;23057;48.554;14.454;2022-10-31T16:03:23;94023.00;;;25.20
41940;BMP180;23057;48.554;14.454;2022-10-31T16:06:00;94034.00;;;25.00
41940;BMP180;23057;48.554;14.454;2022-10-31T16:08:36;94026.00;;;24.90
41940;BMP180;23057;48.554;14.454;2022-10-31T16:16:27;94029.00;;;24.60
41940;BMP180;23057;48.554;14.454;2022-10-31T16:19:02;94022.00;;;24.50
41940;BMP180;23057;48.554;14.454;2022-10-31T16:21:37;94028.00;;;24.40
41940;BMP180;23057;48.554;14.454;2022-10-31T16:24:26;94032.00;;;24.20
41940;BMP180;23057;48.554;14.454;2022-10-31T16:27:21;94030.00;;;24.10
41940;BMP180;23057;48.554;14.454;2022-10-31T16:29:58;94029.00;;;24.00
41940;BMP180;23057;48.554;14.454;2022-10-31T16:35:37;94019.00;;;23.80
41940;BMP180;23057;48.554;14.454;2022-10-31T16:38:08;94024.00;;;23.80
41940;BMP180;23057;48.554;14.454;2022-10-31T16:40:40;94022.00;;;23.70
41940;BMP180;23057;48.554;14.454;2022-10-31T16:43:15;94016.00;;;23.70
41940;BMP180;23057;48.554;14.454;2022-10-31T16:45:50;94022.00;;;23.70